createdAt,value
2019-03-30T05:00:56.002Z,5.50
2019-03-30T05:01:56.171Z,12.50
2019-03-30T05:02:56.341Z,13.50
2019-03-30T05:03:56.510Z,15.10
2019-03-30T05:04:56.685Z,14.80
2019-03-30T05:05:56.858Z,13.50
2019-03-30T05:06:57.027Z,14.20
2019-03-30T05:07:57.194Z,13.50
2019-03-30T05:08:57.363Z,12.50
2019-03-30T05:09:57.536Z,14.30
2019-03-30T05:10:57.701Z,13.50
2019-03-30T05:11:57.874Z,14.10
2019-03-30T05:12:58.041Z,11.50
2019-03-30T05:13:58.214Z,11.80
2019-03-30T05:14:58.382Z,14.70
2019-03-30T05:15:58.547Z,14.50
2019-03-30T05:16:58.715Z,14.00
2019-03-30T05:17:58.885Z,12.80
2019-03-30T05:18:59.057Z,13.50
2019-03-30T05:19:59.224Z,12.20
2019-03-30T05:20:59.391Z,13.10
2019-03-30T05:22:11.593Z,13.20
2019-03-30T05:22:59.733Z,13.20
2019-03-30T05:23:59.900Z,13.10
2019-03-30T05:25:00.239Z,12.60
2019-03-30T05:26:00.241Z,14.30
2019-03-30T05:27:00.411Z,12.50
2019-03-30T05:28:00.580Z,12.60
2019-03-30T05:29:00.752Z,14.30
2019-03-30T05:30:00.938Z,14.20
2019-03-30T05:31:01.092Z,14.00
2019-03-30T05:32:01.247Z,12.10
2019-03-30T05:33:06.016Z,12.10
2019-03-30T05:34:01.585Z,12.60
2019-03-30T05:35:01.754Z,13.50
2019-03-30T05:36:01.926Z,11.80
2019-03-30T05:37:02.094Z,16.40
2019-03-30T05:38:02.282Z,12.90
2019-03-30T05:39:02.447Z,14.20
2019-03-30T05:40:02.614Z,13.00
2019-03-30T05:41:02.782Z,13.80
2019-03-30T05:42:02.951Z,12.80
2019-03-30T05:43:03.119Z,14.10
2019-03-30T05:44:03.301Z,12.60
2019-03-30T05:45:03.470Z,13.70
2019-03-30T05:46:03.630Z,14.10
2019-03-30T05:47:03.797Z,13.30
2019-03-30T05:48:03.964Z,13.70
2019-03-30T05:49:04.130Z,12.70
2019-03-30T05:50:04.293Z,12.20
2019-03-30T05:51:04.461Z,13.00
2019-03-30T05:52:04.645Z,12.70
2019-03-30T05:53:04.811Z,13.30
2019-03-30T05:54:04.982Z,14.00
2019-03-30T05:55:05.150Z,14.00
2019-03-30T05:56:05.318Z,13.60
2019-03-30T05:57:05.489Z,13.70
2019-03-30T05:58:05.662Z,13.80
2019-03-30T05:59:05.834Z,14.60
2019-03-30T06:00:06.002Z,13.40
2019-03-30T06:01:06.171Z,13.70
2019-03-30T06:02:06.341Z,13.30
2019-03-30T06:03:06.508Z,12.20
2019-03-30T06:04:06.677Z,12.70
2019-03-30T06:05:06.850Z,13.70
2019-03-30T06:06:07.022Z,14.00
2019-03-30T06:07:07.189Z,11.80
2019-03-30T06:08:07.418Z,13.70
2019-03-30T06:09:07.528Z,14.10
2019-03-30T06:10:07.700Z,15.00
2019-03-30T06:11:07.872Z,13.70
2019-03-30T06:12:08.050Z,14.90
2019-03-30T06:13:08.232Z,14.10
2019-03-30T06:14:08.400Z,17.30
2019-03-30T06:15:08.573Z,14.10
2019-03-30T06:16:08.745Z,15.60
2019-03-30T06:17:08.936Z,15.00
2019-03-30T06:18:11.398Z,15.20
2019-03-30T06:19:09.250Z,15.50
2019-03-30T06:20:09.421Z,15.30
2019-03-30T06:21:09.590Z,16.80
2019-03-30T06:22:09.762Z,17.60
2019-03-30T06:23:09.928Z,15.70
2019-03-30T06:24:10.102Z,17.60
2019-03-30T06:25:10.265Z,17.20
2019-03-30T06:26:10.437Z,18.70
2019-03-30T06:27:10.605Z,16.70
2019-03-30T06:28:10.772Z,17.70
2019-03-30T06:29:10.941Z,18.60
2019-03-30T06:30:11.110Z,18.60
2019-03-30T06:31:11.281Z,18.80
2019-03-30T06:32:11.451Z,19.80
2019-03-30T06:33:11.619Z,19.60
2019-03-30T06:34:11.790Z,18.80
2019-03-30T06:35:11.960Z,19.90
2019-03-30T06:36:12.128Z,19.50
2019-03-30T06:37:12.295Z,21.50
2019-03-30T06:38:12.463Z,18.60
2019-03-30T06:39:12.633Z,17.50
2019-03-30T06:40:12.806Z,19.10
2019-03-30T06:41:12.976Z,17.50
2019-03-30T06:42:13.146Z,15.40
2019-03-30T06:43:13.319Z,15.60
2019-03-30T06:44:13.485Z,17.20
2019-03-30T06:45:13.654Z,18.80
2019-03-30T06:46:13.826Z,15.80
2019-03-30T06:47:13.994Z,17.50
2019-03-30T06:48:14.165Z,18.00
2019-03-30T06:49:14.335Z,16.30
2019-03-30T06:50:14.504Z,16.30
2019-03-30T06:51:14.676Z,17.20
2019-03-30T06:52:14.844Z,16.90
2019-03-30T06:53:15.014Z,16.50
2019-03-30T06:54:15.185Z,16.00
2019-03-30T06:55:15.356Z,15.60
2019-03-30T06:56:15.524Z,17.00
2019-03-30T06:57:15.696Z,16.60
2019-03-30T06:58:15.868Z,16.10
2019-03-30T06:59:16.034Z,17.10
2019-03-30T07:00:16.205Z,17.30
2019-03-30T07:01:16.374Z,17.40
2019-03-30T07:02:16.542Z,18.00
2019-03-30T07:03:16.713Z,16.80
2019-03-30T07:04:16.883Z,18.80
2019-03-30T07:05:17.057Z,19.00
2019-03-30T07:06:17.226Z,17.30
2019-03-30T07:07:17.395Z,18.00
2019-03-30T07:08:17.564Z,17.30
2019-03-30T07:09:17.736Z,17.30
2019-03-30T07:10:17.905Z,18.50
2019-03-30T07:11:21.331Z,18.20
2019-03-30T07:12:18.246Z,20.50
2019-03-30T07:13:18.419Z,16.20
2019-03-30T07:14:18.587Z,18.10
2019-03-30T07:15:18.764Z,17.80
2019-03-30T07:16:18.933Z,17.40
2019-03-30T07:17:19.104Z,17.70
2019-03-30T07:18:19.274Z,16.20
2019-03-30T07:19:19.455Z,17.30
2019-03-30T07:20:19.625Z,18.40
2019-03-30T07:21:19.798Z,16.50
2019-03-30T07:22:19.965Z,16.20
2019-03-30T07:23:20.133Z,16.60
2019-03-30T07:24:20.304Z,17.90
2019-03-30T07:25:20.474Z,15.90
2019-03-30T07:26:20.647Z,17.50
2019-03-30T07:27:20.819Z,17.40
2019-03-30T07:28:20.994Z,16.90
2019-03-30T07:29:21.166Z,16.20
2019-03-30T07:30:21.337Z,16.30
2019-03-30T07:31:21.510Z,17.50
2019-03-30T07:32:21.680Z,18.40
2019-03-30T07:33:21.850Z,18.30
2019-03-30T07:34:22.023Z,18.70
2019-03-30T07:35:22.192Z,16.00
2019-03-30T07:36:22.364Z,18.00
2019-03-30T07:37:22.535Z,17.40
2019-03-30T07:38:22.699Z,17.90
2019-03-30T07:39:22.878Z,17.60
2019-03-30T07:40:23.050Z,16.40
2019-03-30T07:41:23.222Z,16.10
2019-03-30T07:42:23.397Z,15.00
2019-03-30T07:43:23.566Z,15.60
2019-03-30T07:44:23.740Z,15.50
2019-03-30T07:45:23.905Z,14.80
2019-03-30T07:46:24.072Z,13.30
2019-03-30T07:47:24.241Z,13.30
2019-03-30T07:48:24.394Z,12.90
2019-03-30T07:49:24.572Z,12.10
2019-03-30T07:50:24.742Z,12.90
2019-03-30T07:51:24.916Z,13.00
2019-03-30T07:52:25.087Z,10.90
2019-03-30T07:53:26.960Z,11.90
2019-03-30T07:54:25.439Z,10.40
2019-03-30T07:55:25.611Z,13.80
2019-03-30T07:56:25.782Z,12.10
2019-03-30T07:57:25.955Z,11.80
2019-03-30T07:58:26.130Z,11.10
2019-03-30T07:59:26.312Z,11.60
2019-03-30T08:00:30.677Z,12.50
2019-03-30T08:01:26.650Z,11.70
2019-03-30T08:02:26.826Z,11.80
2019-03-30T08:03:27.002Z,15.00
2019-03-30T08:04:28.682Z,14.20
2019-03-30T08:05:27.362Z,12.20
2019-03-30T08:06:27.533Z,11.30
2019-03-30T08:07:27.708Z,12.70
2019-03-30T08:08:27.883Z,12.50
2019-03-30T08:09:28.068Z,12.00
2019-03-30T08:10:28.241Z,11.80
2019-03-30T08:11:28.416Z,11.40
2019-03-30T08:12:28.590Z,10.90
2019-03-30T08:13:28.846Z,10.60
2019-03-30T08:14:28.940Z,11.70
2019-03-30T08:15:29.113Z,11.00
2019-03-30T08:16:29.289Z,9.60
2019-03-30T08:17:29.466Z,9.90
2019-03-30T08:18:29.633Z,10.10
2019-03-30T08:19:29.807Z,10.60
2019-03-30T08:20:29.989Z,9.80
2019-03-30T08:21:30.289Z,11.80
2019-03-30T08:22:30.361Z,12.40
2019-03-30T08:23:40.353Z,11.50
2019-03-30T08:24:30.687Z,10.30
2019-03-30T08:25:30.877Z,11.10
2019-03-30T08:26:31.045Z,10.20
2019-03-30T08:27:31.209Z,10.30
2019-03-30T08:28:31.381Z,10.30
2019-03-30T08:29:31.554Z,11.60
2019-03-30T08:30:31.730Z,11.80
2019-03-30T08:31:31.909Z,11.30
2019-03-30T08:32:32.109Z,12.00
2019-03-30T08:33:32.298Z,9.80
2019-03-30T08:34:32.444Z,11.20
2019-03-30T08:35:32.620Z,10.50
2019-03-30T08:36:32.796Z,10.90
2019-03-30T08:37:32.972Z,9.70
2019-03-30T08:38:33.146Z,10.30
2019-03-30T08:39:33.321Z,11.20
2019-03-30T08:40:33.494Z,11.90
2019-03-30T08:41:33.675Z,10.50
2019-03-30T08:42:33.853Z,11.20
2019-03-30T08:43:34.028Z,10.30
2019-03-30T08:44:34.201Z,10.20
2019-03-30T08:45:34.372Z,9.80
2019-03-30T08:46:34.538Z,10.10
2019-03-30T08:47:34.725Z,12.30
2019-03-30T08:48:34.904Z,10.20
2019-03-30T08:49:35.078Z,10.90
2019-03-30T08:50:35.253Z,11.10
2019-03-30T08:51:35.429Z,11.10
2019-03-30T08:52:35.606Z,10.00
2019-03-30T08:53:35.781Z,10.80
2019-03-30T08:54:35.962Z,10.70
2019-03-30T08:55:36.193Z,10.70
2019-03-30T08:56:36.312Z,11.80
2019-03-30T08:57:36.485Z,12.10
2019-03-30T08:58:36.662Z,10.00
2019-03-30T08:59:36.836Z,10.20
2019-03-30T09:00:37.015Z,10.50
2019-03-30T09:01:37.188Z,9.90
2019-03-30T09:02:37.363Z,10.70
2019-03-30T09:03:37.543Z,11.10
2019-03-30T09:04:37.729Z,9.90
2019-03-30T09:05:37.900Z,11.50
2019-03-30T09:06:38.238Z,12.50
2019-03-30T09:07:38.251Z,11.50
2019-03-30T09:08:38.426Z,10.90
2019-03-30T09:09:38.618Z,11.20
2019-03-30T09:10:38.784Z,10.10
2019-03-30T09:11:38.964Z,10.70
2019-03-30T09:12:39.141Z,11.30
2019-03-30T09:13:39.322Z,11.50
2019-03-30T09:14:39.485Z,10.30
2019-03-30T09:15:39.670Z,10.50
2019-03-30T09:16:39.851Z,11.50
2019-03-30T09:17:39.999Z,10.70
2019-03-30T09:18:40.259Z,10.90
2019-03-30T09:19:40.362Z,12.10
2019-03-30T09:20:40.544Z,11.10
2019-03-30T09:21:40.728Z,11.50
2019-03-30T09:22:40.904Z,10.90
2019-03-30T09:23:41.084Z,10.50
2019-03-30T09:24:41.259Z,11.30
2019-03-30T09:25:41.440Z,11.60
2019-03-30T09:26:41.625Z,13.20
2019-03-30T09:27:41.797Z,12.30
2019-03-30T09:28:41.975Z,12.80
2019-03-30T09:29:42.151Z,12.10
2019-03-30T09:30:42.335Z,12.70
2019-03-30T09:31:42.509Z,12.60
2019-03-30T09:32:45.009Z,12.20
2019-03-30T09:33:42.864Z,12.20
2019-03-30T09:34:43.045Z,12.20
2019-03-30T09:35:43.221Z,12.40
2019-03-30T09:36:43.497Z,12.30
2019-03-30T09:37:43.596Z,13.10
2019-03-30T09:38:43.759Z,13.00
2019-03-30T09:39:43.934Z,13.10
2019-03-30T09:40:44.109Z,13.30
2019-03-30T09:41:44.292Z,13.70
2019-03-30T09:42:44.470Z,12.90
2019-03-30T09:43:44.647Z,12.50
2019-03-30T09:44:44.825Z,13.00
2019-03-30T09:45:45.006Z,12.80
2019-03-30T09:46:45.186Z,13.90
2019-03-30T09:47:45.363Z,13.40
2019-03-30T09:48:45.544Z,13.70
2019-03-30T09:49:45.721Z,13.80
2019-03-30T09:50:45.896Z,12.90
2019-03-30T09:51:46.078Z,14.70
2019-03-30T09:52:46.249Z,13.90
2019-03-30T09:53:46.447Z,13.90
2019-03-30T09:54:46.621Z,14.40
2019-03-30T09:55:46.803Z,14.60
2019-03-30T09:56:46.980Z,13.70
2019-03-30T09:57:47.157Z,13.30
2019-03-30T09:58:47.340Z,13.90
2019-03-30T09:59:47.518Z,13.20
2019-03-30T10:00:47.704Z,13.00
2019-03-30T10:01:47.869Z,13.30
2019-03-30T10:02:48.051Z,12.90
2019-03-30T10:03:48.231Z,13.70
2019-03-30T10:04:48.417Z,13.10
2019-03-30T10:05:48.594Z,13.20
2019-03-30T10:06:48.773Z,13.30
2019-03-30T10:07:48.955Z,14.00
2019-03-30T10:08:49.142Z,14.20
2019-03-30T10:09:49.340Z,12.80
2019-03-30T10:10:49.516Z,14.10
2019-03-30T10:11:49.697Z,13.80
2019-03-30T10:12:49.875Z,14.10
2019-03-30T10:13:50.059Z,13.60
2019-03-30T10:14:50.237Z,13.70
2019-03-30T10:15:50.418Z,13.50
2019-03-30T10:16:50.598Z,13.10
2019-03-30T10:17:50.777Z,13.70
2019-03-30T10:18:50.960Z,14.00
2019-03-30T10:20:03.685Z,13.80
2019-03-30T10:20:51.322Z,14.40
2019-03-30T10:21:51.507Z,13.00
2019-03-30T10:22:51.685Z,13.00
2019-03-30T10:23:51.865Z,13.80
2019-03-30T10:24:52.044Z,14.40
2019-03-30T10:25:52.226Z,14.10
2019-03-30T10:26:52.405Z,14.40
2019-03-30T10:27:52.585Z,14.20
2019-03-30T10:28:52.766Z,14.20
2019-03-30T10:29:52.948Z,14.40
2019-03-30T10:30:53.129Z,15.10
2019-03-30T10:31:53.310Z,14.60
2019-03-30T10:32:53.491Z,13.60
2019-03-30T10:33:53.671Z,13.90
2019-03-30T10:34:53.851Z,13.90
2019-03-30T10:35:54.034Z,13.80
2019-03-30T10:36:54.222Z,14.00
2019-03-30T10:37:54.398Z,14.50
2019-03-30T10:38:54.579Z,14.10
2019-03-30T10:39:54.757Z,13.80
2019-03-30T10:40:54.940Z,14.20
2019-03-30T10:41:55.129Z,14.50
2019-03-30T10:42:55.308Z,14.10
2019-03-30T10:43:55.491Z,14.50
2019-03-30T10:44:55.671Z,14.10
2019-03-30T10:45:55.868Z,13.40
2019-03-30T10:46:56.025Z,13.90
2019-03-30T10:47:56.230Z,13.60
2019-03-30T10:48:56.470Z,12.90
2019-03-30T10:49:56.567Z,12.70
2019-03-30T10:50:56.764Z,14.50
2019-03-30T10:51:56.930Z,13.30
2019-03-30T10:52:57.107Z,12.60
2019-03-30T10:53:57.287Z,13.70
2019-03-30T10:54:57.468Z,13.70
2019-03-30T10:55:57.646Z,13.40
2019-03-30T10:56:57.834Z,13.30
2019-03-30T10:57:58.824Z,13.00
2019-03-30T10:58:58.205Z,13.60
2019-03-30T10:59:58.389Z,13.40
2019-03-30T11:00:58.604Z,14.50
2019-03-30T11:01:58.750Z,16.60
2019-03-30T11:02:58.932Z,13.20
2019-03-30T11:03:59.122Z,13.60
2019-03-30T11:04:59.298Z,14.30
2019-03-30T11:05:59.479Z,14.30
2019-03-30T11:06:59.661Z,13.70
2019-03-30T11:07:59.845Z,14.30
2019-03-30T11:09:00.029Z,14.00
2019-03-30T11:10:00.210Z,13.10
2019-03-30T11:11:00.392Z,12.90
2019-03-30T11:12:00.574Z,13.10
2019-03-30T11:13:00.803Z,13.90
2019-03-30T11:14:00.937Z,12.60
2019-03-30T11:15:01.125Z,12.50
2019-03-30T11:16:01.307Z,13.40
2019-03-30T11:17:01.487Z,12.60
2019-03-30T11:18:01.674Z,11.30
2019-03-30T11:19:01.855Z,12.60
2019-03-30T11:20:02.044Z,13.10
2019-03-30T11:21:02.219Z,12.70
2019-03-30T11:22:03.386Z,11.60
2019-03-30T11:23:02.591Z,13.40
2019-03-30T11:24:05.095Z,10.70
2019-03-30T11:25:08.032Z,16.60
2019-03-30T11:26:03.140Z,11.80
2019-03-30T11:27:03.320Z,11.40
2019-03-30T11:28:03.504Z,11.10
2019-03-30T11:29:03.691Z,10.30
2019-03-30T11:30:03.871Z,9.70
2019-03-30T11:31:05.546Z,8.90
2019-03-30T11:32:04.239Z,8.90
2019-03-30T11:33:04.424Z,9.90
2019-03-30T11:34:05.513Z,10.10
2019-03-30T11:35:04.783Z,9.90
2019-03-30T11:36:04.964Z,10.80
2019-03-30T11:37:05.154Z,10.50
2019-03-30T11:38:05.334Z,10.00
2019-03-30T11:39:05.511Z,7.30
2019-03-30T11:40:05.691Z,10.20
2019-03-30T11:41:05.876Z,8.00
2019-03-30T11:42:06.058Z,8.70
2019-03-30T11:43:06.237Z,7.90
2019-03-30T11:44:06.480Z,10.10
2019-03-30T11:45:06.596Z,9.60
2019-03-30T11:46:06.774Z,8.30
2019-03-30T11:47:06.952Z,7.70
2019-03-30T11:48:07.131Z,7.80
2019-03-30T11:49:07.312Z,8.40
2019-03-30T11:50:07.493Z,8.30
2019-03-30T11:51:07.669Z,8.40
2019-03-30T11:52:07.849Z,10.40
2019-03-30T11:53:08.025Z,8.60
2019-03-30T11:54:08.204Z,8.40
2019-03-30T11:55:21.033Z,7.40
2019-03-30T11:56:08.566Z,9.00
2019-03-30T11:57:08.830Z,7.50
2019-03-30T11:58:08.914Z,8.20
2019-03-30T11:59:09.093Z,8.20
2019-03-30T12:00:09.273Z,8.10
2019-03-30T12:01:09.446Z,8.40
2019-03-30T12:02:09.623Z,7.50
2019-03-30T12:03:09.803Z,7.50
2019-03-30T12:04:09.979Z,7.80
2019-03-30T12:05:10.156Z,7.30
2019-03-30T12:06:10.330Z,6.80
2019-03-30T12:07:10.508Z,7.30
2019-03-30T12:08:10.687Z,7.90
2019-03-30T12:09:10.863Z,7.20
2019-03-30T12:10:11.040Z,6.80
2019-03-30T12:11:11.220Z,6.80
2019-03-30T12:12:11.413Z,6.40
2019-03-30T12:13:11.585Z,6.70
2019-03-30T12:14:11.752Z,6.10
2019-03-30T12:15:11.930Z,5.30
2019-03-30T12:16:12.107Z,5.80
2019-03-30T12:17:12.283Z,6.00
2019-03-30T12:18:12.459Z,8.10
2019-03-30T12:19:12.638Z,5.60
2019-03-30T12:20:12.817Z,5.00
2019-03-30T12:21:12.994Z,5.40
2019-03-30T12:22:13.171Z,5.20
2019-03-30T12:23:13.351Z,5.90
2019-03-30T12:24:13.530Z,4.90
2019-03-30T12:25:13.706Z,4.90
2019-03-30T12:26:13.888Z,5.60
2019-03-30T12:27:14.064Z,5.40
2019-03-30T12:28:14.244Z,4.20
2019-03-30T12:29:14.443Z,4.60
2019-03-30T12:30:14.636Z,4.20
2019-03-30T12:31:14.798Z,5.30
2019-03-30T12:32:14.991Z,3.90
2019-03-30T12:33:15.155Z,4.50
2019-03-30T12:34:15.336Z,4.00
2019-03-30T12:35:15.516Z,4.60
2019-03-30T12:36:15.698Z,4.50
2019-03-30T12:37:15.885Z,4.50
2019-03-30T12:38:16.059Z,3.60
2019-03-30T12:39:16.238Z,4.70
2019-03-30T12:40:16.423Z,4.90
2019-03-30T12:41:16.606Z,3.40
2019-03-30T12:42:16.804Z,4.50
2019-03-30T12:43:16.976Z,4.50
2019-03-30T12:44:17.156Z,4.30
2019-03-30T12:45:17.338Z,4.40
2019-03-30T12:46:17.523Z,3.60
2019-03-30T12:47:17.706Z,4.20
2019-03-30T12:48:17.887Z,4.60
2019-03-30T12:49:18.069Z,5.20
2019-03-30T12:50:18.253Z,4.60
2019-03-30T12:51:18.436Z,4.50
2019-03-30T12:52:18.618Z,5.20
2019-03-30T12:53:18.802Z,4.80
2019-03-30T12:54:18.986Z,4.50
2019-03-30T12:55:19.169Z,5.50
2019-03-30T12:56:19.352Z,5.20
2019-03-30T12:57:19.536Z,4.90
2019-03-30T12:58:19.718Z,4.30
2019-03-30T12:59:19.901Z,4.80
2019-03-30T13:00:20.085Z,4.30
2019-03-30T13:01:20.270Z,3.80
2019-03-30T13:02:20.450Z,5.10
2019-03-30T13:03:20.633Z,4.20
2019-03-30T13:04:20.817Z,4.70
2019-03-30T13:05:20.992Z,4.70
2019-03-30T13:06:21.176Z,4.00
2019-03-30T13:07:21.360Z,3.70
2019-03-30T13:08:21.541Z,3.40
2019-03-30T13:09:21.726Z,3.30
2019-03-30T13:10:21.909Z,3.50
2019-03-30T13:11:22.091Z,3.90
2019-03-30T13:12:22.275Z,4.90
2019-03-30T13:13:22.459Z,5.20
2019-03-30T13:14:22.642Z,4.00
2019-03-30T13:15:22.824Z,3.60
2019-03-30T13:16:26.205Z,3.20
2019-03-30T13:17:23.194Z,4.60
2019-03-30T13:18:23.380Z,4.80
2019-03-30T13:19:23.574Z,5.20
2019-03-30T13:20:23.757Z,5.20
2019-03-30T13:21:23.938Z,3.70
2019-03-30T13:22:24.128Z,4.20
2019-03-30T13:23:24.306Z,4.40
2019-03-30T13:24:24.492Z,3.50
2019-03-30T13:25:24.673Z,3.50
2019-03-30T13:26:24.857Z,4.60
2019-03-30T13:27:25.037Z,4.00
2019-03-30T13:28:25.221Z,4.80
2019-03-30T13:29:25.404Z,3.60
2019-03-30T13:30:25.588Z,3.90
2019-03-30T13:31:25.773Z,4.10
2019-03-30T13:32:25.955Z,4.40
2019-03-30T13:33:26.138Z,4.10
2019-03-30T13:34:26.319Z,3.80
2019-03-30T13:35:26.504Z,4.10
2019-03-30T13:36:26.688Z,3.90
2019-03-30T13:37:26.869Z,3.90
2019-03-30T13:38:27.063Z,4.30
2019-03-30T13:39:27.237Z,3.90
2019-03-30T13:40:27.431Z,3.50
2019-03-30T13:41:27.614Z,3.50
2019-03-30T13:42:27.797Z,4.20
2019-03-30T13:43:27.981Z,5.40
2019-03-30T13:44:28.163Z,3.20
2019-03-30T13:45:28.360Z,4.20
2019-03-30T13:46:28.540Z,4.20
2019-03-30T13:47:28.725Z,4.70
2019-03-30T13:48:28.915Z,3.90
2019-03-30T13:49:29.818Z,3.80
2019-03-30T13:50:31.022Z,5.50
2019-03-30T13:51:29.462Z,3.40
2019-03-30T13:52:29.646Z,3.70
2019-03-30T13:53:29.830Z,4.00
2019-03-30T13:54:30.014Z,4.50
2019-03-30T13:55:30.197Z,3.40
2019-03-30T13:56:30.379Z,3.40
2019-03-30T13:57:30.570Z,4.60
2019-03-30T13:58:30.746Z,4.70
2019-03-30T13:59:30.939Z,3.90
2019-03-30T14:00:31.127Z,4.80
2019-03-30T14:41:20.231Z,4.10
2019-03-30T14:42:20.416Z,4.50
2019-03-30T14:43:20.599Z,3.90
2019-03-30T14:44:20.782Z,6.20
2019-03-30T14:45:20.968Z,5.20
2019-03-30T14:46:21.147Z,5.40
2019-03-30T14:47:21.332Z,5.50
2019-03-30T14:48:21.518Z,5.10
2019-03-30T14:49:21.704Z,5.00
2019-03-30T14:50:21.885Z,6.30
2019-03-30T14:51:22.068Z,5.30
2019-03-30T14:52:22.253Z,5.50
2019-03-30T14:53:22.460Z,4.30
2019-03-30T14:54:22.625Z,5.50
2019-03-30T14:55:22.806Z,5.40
2019-03-30T14:56:22.990Z,4.80
2019-03-30T14:57:23.174Z,5.40
2019-03-30T14:58:23.400Z,5.40
2019-03-30T14:59:23.541Z,5.60
2019-03-30T15:00:23.767Z,5.20
2019-03-30T15:01:23.907Z,5.10
2019-03-30T15:02:24.096Z,5.40
2019-03-30T15:03:24.278Z,4.40
2019-03-30T15:04:24.463Z,4.50
2019-03-30T15:05:24.644Z,5.90
2019-03-30T15:06:24.832Z,4.80
2019-03-30T15:07:25.013Z,4.80
2019-03-30T15:08:25.198Z,4.60
2019-03-30T15:09:25.381Z,5.70
2019-03-30T15:10:25.562Z,5.20
2019-03-30T15:11:25.750Z,5.00
2019-03-30T15:12:25.931Z,5.50
2019-03-30T15:13:26.115Z,5.10
2019-03-30T15:14:26.297Z,5.40
2019-03-30T15:15:26.478Z,6.20
2019-03-30T15:16:26.663Z,5.60
2019-03-30T15:17:26.847Z,5.90
2019-03-30T15:18:27.033Z,5.70
2019-03-30T15:19:27.215Z,5.40
2019-03-30T15:20:27.394Z,4.90
2019-03-30T15:21:27.574Z,4.60
2019-03-30T15:22:27.757Z,6.40
2019-03-30T15:23:27.939Z,5.90
2019-03-30T15:24:28.123Z,5.20
2019-03-30T15:25:28.306Z,6.10
2019-03-30T15:26:28.484Z,6.50
2019-03-30T15:27:28.664Z,5.40
2019-03-30T15:28:28.846Z,5.70
2019-03-30T15:29:29.022Z,5.80
2019-03-30T15:30:29.211Z,5.40
2019-03-30T15:31:29.393Z,5.20
2019-03-30T15:32:29.574Z,5.70
2019-03-30T15:33:29.761Z,6.10
2019-03-30T15:34:29.935Z,7.00
2019-03-30T15:35:30.116Z,5.60
2019-03-30T15:36:30.304Z,5.40
2019-03-30T15:37:30.480Z,6.50
2019-03-30T15:38:30.662Z,6.20
2019-03-30T15:39:30.844Z,6.70
2019-03-30T15:40:31.028Z,6.60
2019-03-30T15:41:31.216Z,6.10
2019-03-30T15:42:31.393Z,7.30
2019-03-30T15:43:38.045Z,6.20
2019-03-30T15:44:31.747Z,5.50
2019-03-30T15:45:31.933Z,6.50
2019-03-30T15:46:32.111Z,6.40
2019-03-30T15:47:32.286Z,5.50
2019-03-30T15:48:32.470Z,5.90
2019-03-30T15:49:32.644Z,6.30
2019-03-30T15:50:32.822Z,6.70
2019-03-30T15:51:33.002Z,5.80
2019-03-30T15:52:33.181Z,6.30
2019-03-30T15:53:33.365Z,6.20
2019-03-30T15:54:33.540Z,7.10
2019-03-30T15:55:33.717Z,6.30
2019-03-30T15:56:33.896Z,7.90
2019-03-30T15:57:34.077Z,6.00
2019-03-30T15:58:34.265Z,6.20
2019-03-30T15:59:34.438Z,7.60
2019-03-30T16:00:34.617Z,5.90
2019-03-30T16:01:34.799Z,7.70
2019-03-30T16:02:34.996Z,6.80
2019-03-30T16:03:35.153Z,6.50
2019-03-30T16:04:35.331Z,6.90
2019-03-30T16:05:35.509Z,7.70
2019-03-30T16:06:35.690Z,6.80
2019-03-30T16:07:35.870Z,6.70
2019-03-30T16:08:36.042Z,8.00
2019-03-30T16:09:36.219Z,6.80
2019-03-30T16:10:36.402Z,6.30
2019-03-30T16:11:36.579Z,6.90
2019-03-30T16:12:36.757Z,7.20
2019-03-30T16:13:36.936Z,6.20
2019-03-30T16:14:37.117Z,6.20
2019-03-30T16:15:37.296Z,6.20
2019-03-30T16:16:37.479Z,6.40
2019-03-30T16:17:37.652Z,6.20
2019-03-30T16:18:37.830Z,7.00
2019-03-30T16:19:38.009Z,7.00
2019-03-30T16:20:38.189Z,6.40
2019-03-30T16:21:38.365Z,7.50
2019-03-30T16:22:38.545Z,6.30
2019-03-30T16:23:38.720Z,9.00
2019-03-30T16:24:38.965Z,7.20
2019-03-30T16:25:39.082Z,8.40
2019-03-30T16:26:42.342Z,7.10
2019-03-30T16:27:39.763Z,6.20
2019-03-30T16:28:39.625Z,6.60
2019-03-30T16:29:39.807Z,7.00
2019-03-30T16:30:39.989Z,7.40
2019-03-30T16:31:40.169Z,7.30
2019-03-30T16:32:40.353Z,8.10
2019-03-30T16:33:40.527Z,7.90
2019-03-30T16:34:40.704Z,7.00
2019-03-30T16:35:40.884Z,6.60
2019-03-30T16:36:41.066Z,6.80
2019-03-30T16:37:41.249Z,9.30
2019-03-30T16:38:41.426Z,6.80
2019-03-30T16:39:41.608Z,8.10
2019-03-30T16:40:41.785Z,8.10
2019-03-30T16:41:41.963Z,7.30
2019-03-30T16:42:42.141Z,7.60
2019-03-30T16:43:42.315Z,6.10
2019-03-30T16:44:42.494Z,5.70
2019-03-30T16:45:42.666Z,6.10
2019-03-30T16:46:42.847Z,6.10
2019-03-30T16:47:43.021Z,6.10
2019-03-30T16:48:43.197Z,6.50
2019-03-30T16:49:43.376Z,6.20
2019-03-30T16:50:43.553Z,5.00
2019-03-30T16:51:43.731Z,6.30
2019-03-30T16:52:43.909Z,8.20
2019-03-30T16:53:47.173Z,7.50
2019-03-30T16:54:44.265Z,6.90
2019-03-30T16:55:44.444Z,9.60
2019-03-30T16:56:44.616Z,6.00
2019-03-30T16:57:44.793Z,5.00
2019-03-30T16:58:44.966Z,6.60
2019-03-30T16:59:45.148Z,4.90
2019-03-30T17:00:56.322Z,5.00
2019-03-30T17:01:45.500Z,4.70
2019-03-30T17:02:45.676Z,5.40
2019-03-30T17:03:45.850Z,4.90
2019-03-30T17:04:46.026Z,6.80
2019-03-30T17:05:46.206Z,6.10
2019-03-30T17:06:46.384Z,3.30
2019-03-30T17:07:46.554Z,4.20
2019-03-30T17:08:46.731Z,7.30
2019-03-30T17:09:46.905Z,5.20
2019-03-30T17:10:47.081Z,6.00
2019-03-30T17:11:47.257Z,6.20
2019-03-30T17:12:47.432Z,7.10
2019-03-30T17:13:47.607Z,6.20
2019-03-30T17:14:47.785Z,5.20
2019-03-30T17:15:47.963Z,5.10
2019-03-30T17:16:48.143Z,11.50
2019-03-30T17:17:48.316Z,7.50
2019-03-30T17:18:48.495Z,5.50
2019-03-30T17:19:48.675Z,5.30
2019-03-30T17:20:48.851Z,5.70
2019-03-30T17:21:49.028Z,10.30
2019-03-30T17:22:49.205Z,9.30
2019-03-30T17:23:49.381Z,5.80
2019-03-30T17:24:49.555Z,5.00
2019-03-30T17:25:49.736Z,6.60
2019-03-30T17:26:49.910Z,13.70
2019-03-30T17:27:57.969Z,10.30
2019-03-30T17:28:50.262Z,5.70
2019-03-30T17:29:50.437Z,3.90
2019-03-30T17:30:50.616Z,4.20
2019-03-30T17:31:50.790Z,15.40
2019-03-30T17:32:50.966Z,9.00
2019-03-30T17:33:51.147Z,5.90
2019-03-30T17:34:51.323Z,5.20
2019-03-30T17:35:51.498Z,5.00
2019-03-30T17:36:51.675Z,5.70
2019-03-30T17:37:51.847Z,6.50
2019-03-30T17:38:52.024Z,6.40
2019-03-30T17:39:52.201Z,5.80
2019-03-30T17:40:52.376Z,3.90
2019-03-30T17:41:52.551Z,5.50
2019-03-30T17:42:52.724Z,4.80
2019-03-30T17:43:52.899Z,4.00
2019-03-30T17:44:53.073Z,4.40
2019-03-30T17:45:53.248Z,4.80
2019-03-30T17:46:53.426Z,5.60
2019-03-30T17:47:53.600Z,4.20
2019-03-30T17:48:53.774Z,5.00
2019-03-30T17:49:53.948Z,3.90
2019-03-30T17:50:54.123Z,4.80
2019-03-30T17:51:54.299Z,3.90
2019-03-30T17:52:54.472Z,4.00
2019-03-30T17:53:54.656Z,4.40
2019-03-30T17:54:54.830Z,4.20
2019-03-30T17:55:55.005Z,7.50
2019-03-30T17:56:55.175Z,4.50
2019-03-30T17:57:55.349Z,5.90
2019-03-30T17:58:55.528Z,5.10
2019-03-30T17:59:55.699Z,5.00
2019-03-30T18:00:55.874Z,4.90
2019-03-30T18:01:56.051Z,4.80
2019-03-30T18:02:56.226Z,8.00
2019-03-30T18:03:56.399Z,6.80
2019-03-30T18:04:56.576Z,7.50
2019-03-30T18:05:56.747Z,6.70
2019-03-30T18:06:56.921Z,7.60
2019-03-30T18:07:57.094Z,9.10
2019-03-30T18:08:57.273Z,11.40
2019-03-30T18:09:57.443Z,7.30
2019-03-30T18:10:57.629Z,10.00
2019-03-30T18:11:57.800Z,9.20
2019-03-30T18:12:57.974Z,10.90
2019-03-30T18:13:58.149Z,8.70
2019-03-30T18:14:58.324Z,11.60
2019-03-30T18:15:58.500Z,8.00
2019-03-30T18:16:58.672Z,11.00
2019-03-30T18:17:58.846Z,7.20
2019-03-30T18:18:59.025Z,12.50
2019-03-30T18:19:59.198Z,8.90
2019-03-30T18:20:59.374Z,9.60
2019-03-30T18:21:59.542Z,7.90
2019-03-30T18:22:59.715Z,10.90
2019-03-30T18:23:59.888Z,9.80
2019-03-30T18:25:00.063Z,11.30
2019-03-30T18:26:00.314Z,12.00
2019-03-30T18:27:00.421Z,10.80
2019-03-30T18:28:00.591Z,12.00
2019-03-30T18:29:00.763Z,12.40
2019-03-30T18:30:00.937Z,12.60
2019-03-30T18:31:01.115Z,10.90
2019-03-30T18:32:01.292Z,11.10
2019-03-30T18:33:01.463Z,10.50
2019-03-30T18:34:01.634Z,11.70
2019-03-30T18:35:01.810Z,10.70
2019-03-30T18:36:01.984Z,13.30
2019-03-30T18:37:02.157Z,14.80
2019-03-30T18:38:02.332Z,15.40
2019-03-30T18:39:09.468Z,17.00
2019-03-30T18:40:02.676Z,17.40
2019-03-30T18:41:02.850Z,16.70
2019-03-30T18:42:03.024Z,13.10
2019-03-30T18:43:03.195Z,8.10
2019-03-30T18:44:03.371Z,11.90
2019-03-30T18:45:03.545Z,8.30
2019-03-30T18:46:03.717Z,8.70
2019-03-30T18:47:03.891Z,6.70